createdAt,value
2019-04-27T00:01:27.252Z,12.17
2019-04-27T00:04:34.896Z,12.80
2019-04-27T00:07:33.779Z,12.87
2019-04-27T00:10:11.202Z,11.73
2019-04-27T00:12:42.876Z,11.27
2019-04-27T00:15:15.954Z,12.30
2019-04-27T00:17:56.907Z,12.83
2019-04-27T00:20:50.951Z,12.43
2019-04-27T00:23:24.039Z,11.48
2019-04-27T00:25:54.412Z,11.43
2019-04-27T00:28:25.736Z,10.80
2019-04-27T00:30:56.594Z,11.53
2019-04-27T00:33:27.127Z,11.70
2019-04-27T00:36:03.073Z,11.40
2019-04-27T00:38:57.712Z,10.77
2019-04-27T00:41:28.144Z,10.50
2019-04-27T00:43:58.430Z,10.90
2019-04-27T00:46:28.803Z,10.13
2019-04-27T00:48:59.102Z,11.47
2019-04-27T00:51:29.662Z,11.53
2019-04-27T00:54:00.130Z,11.33
2019-04-27T00:56:55.584Z,11.63
2019-04-27T00:59:53.925Z,12.50
2019-04-27T01:02:46.136Z,10.63
2019-04-27T01:05:24.919Z,10.50
2019-04-27T01:07:55.448Z,10.70
2019-04-27T01:10:26.131Z,10.83
2019-04-27T01:12:56.566Z,10.53
2019-04-27T01:15:27.124Z,10.70
2019-04-27T01:18:11.097Z,11.03
2019-04-27T01:20:30.199Z,12.17
2019-04-27T01:23:00.901Z,12.17
2019-04-27T01:25:59.836Z,11.40
2019-04-27T01:28:34.586Z,11.47
2019-04-27T01:31:09.259Z,11.00
2019-04-27T01:33:39.635Z,11.47
2019-04-27T01:36:10.743Z,11.37
2019-04-27T01:38:41.288Z,10.63
2019-04-27T01:41:11.636Z,11.10
2019-04-27T01:43:41.868Z,10.20
2019-04-27T01:46:12.135Z,11.03
2019-04-27T01:48:42.617Z,10.90
2019-04-27T01:51:14.066Z,10.25
2019-04-27T01:53:44.392Z,11.27
2019-04-27T01:56:14.705Z,11.30
2019-04-27T01:58:44.977Z,10.67
2019-04-27T02:01:28.713Z,10.13
2019-04-27T02:04:12.943Z,10.97
2019-04-27T02:06:43.483Z,10.30
2019-04-27T02:09:16.045Z,9.90
2019-04-27T02:11:46.332Z,9.93
2019-04-27T02:14:16.527Z,10.37
2019-04-27T02:16:47.073Z,9.57
2019-04-27T02:19:19.308Z,9.80
2019-04-27T02:21:51.569Z,9.45
2019-04-27T02:24:22.538Z,10.57
2019-04-27T02:26:52.779Z,10.57
2019-04-27T02:29:42.151Z,9.93
2019-04-27T02:32:23.119Z,10.53
2019-04-27T02:35:01.406Z,9.70
2019-04-27T02:37:32.414Z,9.83
2019-04-27T02:40:02.721Z,10.27
2019-04-27T02:42:43.831Z,9.87
2019-04-27T02:45:14.248Z,9.50
2019-04-27T02:47:44.512Z,9.53
2019-04-27T02:50:15.905Z,9.20
2019-04-27T02:52:50.087Z,9.27
2019-04-27T02:55:20.523Z,9.60
2019-04-27T02:57:50.966Z,9.93
2019-04-27T03:00:22.805Z,9.77
2019-04-27T03:03:01.946Z,9.20
2019-04-27T03:05:29.788Z,8.93
2019-04-27T03:08:00.251Z,9.27
2019-04-27T03:10:32.148Z,10.03
2019-04-27T03:13:11.169Z,9.27
2019-04-27T03:15:50.659Z,9.20
2019-04-27T03:18:35.575Z,9.43
2019-04-27T03:21:12.769Z,9.77
2019-04-27T03:23:41.377Z,9.97
2019-04-27T03:26:33.705Z,9.67
2019-04-27T03:29:04.482Z,10.00
2019-04-27T03:31:34.995Z,9.40
2019-04-27T03:34:06.021Z,10.20
2019-04-27T03:36:36.571Z,9.97
2019-04-27T03:39:10.172Z,9.63
2019-04-27T03:41:41.246Z,9.57
2019-04-27T03:44:11.585Z,9.80
2019-04-27T03:46:41.924Z,10.10
2019-04-27T03:49:27.950Z,9.33
2019-04-27T03:51:54.450Z,9.45
2019-04-27T03:54:40.044Z,9.47
2019-04-27T03:57:23.181Z,9.50
2019-04-27T04:00:02.060Z,9.63
2019-04-27T04:02:33.947Z,9.23
2019-04-27T04:05:04.747Z,9.23
2019-04-27T04:07:35.080Z,10.07
2019-04-27T04:10:06.604Z,10.43
2019-04-27T04:12:55.705Z,10.90
2019-04-27T04:15:42.823Z,10.27
2019-04-27T04:18:13.346Z,10.20
2019-04-27T04:20:43.645Z,9.67
2019-04-27T04:23:14.187Z,9.23
2019-04-27T04:25:44.444Z,11.00
2019-04-27T04:28:14.811Z,9.67
2019-04-27T04:30:45.179Z,9.73
2019-04-27T04:33:15.472Z,9.63
2019-04-27T04:35:45.752Z,10.00
2019-04-27T04:38:20.653Z,10.20
2019-04-27T04:40:59.308Z,10.23
2019-04-27T04:43:54.456Z,10.27
2019-04-27T04:46:39.793Z,9.90
2019-04-27T04:49:09.522Z,9.90
2019-04-27T04:51:40.457Z,10.63
2019-04-27T04:54:10.742Z,9.53
2019-04-27T04:56:41.222Z,9.83
2019-04-27T04:59:11.526Z,9.70
2019-04-27T05:01:41.824Z,9.17
2019-04-27T05:04:12.144Z,10.03
2019-04-27T05:06:42.400Z,9.37
2019-04-27T05:09:12.701Z,9.00
2019-04-27T05:11:42.961Z,11.03
2019-04-27T05:14:13.271Z,10.60
2019-04-27T05:16:43.515Z,11.53
2019-04-27T05:19:13.883Z,11.33
2019-04-27T05:21:45.683Z,10.32
2019-04-27T05:24:19.025Z,9.98
2019-04-27T05:26:49.361Z,10.48
2019-04-27T05:29:19.659Z,9.77
2019-04-27T05:31:50.145Z,9.95
2019-04-27T05:34:20.358Z,9.20
2019-04-27T05:36:52.590Z,9.58
2019-04-27T05:39:25.064Z,8.75
2019-04-27T05:41:55.707Z,8.70
2019-04-27T05:44:41.355Z,8.60
2019-04-27T05:47:30.667Z,9.30
2019-04-27T05:50:20.099Z,8.63
2019-04-27T05:52:47.044Z,8.20
2019-04-27T05:55:19.118Z,8.90
2019-04-27T05:57:50.246Z,9.20
2019-04-27T06:00:21.721Z,8.23
2019-04-27T06:02:52.038Z,9.10
2019-04-27T06:05:22.886Z,9.75
2019-04-27T06:07:53.878Z,10.63
2019-04-27T06:10:24.874Z,10.07
2019-04-27T06:12:55.382Z,11.03
2019-04-27T06:15:25.963Z,10.03
2019-04-27T06:17:56.488Z,11.65
2019-04-27T06:20:28.501Z,10.88
2019-04-27T06:22:59.122Z,10.63
2019-04-27T06:25:30.511Z,11.78
2019-04-27T06:28:01.584Z,13.20
2019-04-27T06:30:33.002Z,12.27
2019-04-27T06:33:03.352Z,17.15
2019-04-27T06:35:33.698Z,17.42
2019-04-27T06:38:04.030Z,14.93
2019-04-27T06:40:35.525Z,18.57
2019-04-27T06:43:06.023Z,17.23
2019-04-27T06:45:38.632Z,18.48
2019-04-27T06:48:09.609Z,18.40
2019-04-27T06:50:40.059Z,16.87
2019-04-27T06:53:10.381Z,17.10
2019-04-27T06:55:40.748Z,15.72
2019-04-27T06:58:11.000Z,14.18
2019-04-27T07:00:41.472Z,14.33
2019-04-27T07:03:11.911Z,12.93
2019-04-27T07:05:42.523Z,13.93
2019-04-27T07:08:12.809Z,13.62
2019-04-27T07:10:43.983Z,16.25
2019-04-27T07:13:14.157Z,16.23
2019-04-27T07:15:44.393Z,19.10
2019-04-27T07:18:14.720Z,19.27
2019-04-27T07:20:45.374Z,22.60
2019-04-27T07:23:16.897Z,20.40
2019-04-27T07:25:48.850Z,22.15
2019-04-27T07:28:19.266Z,21.60
2019-04-27T07:30:49.555Z,21.70
2019-04-27T07:33:19.980Z,21.73
2019-04-27T07:35:50.291Z,24.32
2019-04-27T07:38:20.588Z,24.20
2019-04-27T07:40:50.885Z,26.40
2019-04-27T07:43:33.359Z,22.05
2019-04-27T07:46:05.339Z,25.40
2019-04-27T07:48:35.941Z,26.93
2019-04-27T07:51:08.954Z,25.75
2019-04-27T07:53:39.421Z,27.75
2019-04-27T07:56:10.806Z,26.65
2019-04-27T07:58:41.346Z,25.90
2019-04-27T08:01:12.090Z,26.07
2019-04-27T08:03:42.442Z,24.75
2019-04-27T08:06:12.695Z,25.45
2019-04-27T08:08:43.253Z,25.62
2019-04-27T08:11:13.896Z,24.12
2019-04-27T08:13:44.655Z,22.95
2019-04-27T08:16:14.990Z,26.80
2019-04-27T08:18:45.274Z,26.27
2019-04-27T08:21:18.888Z,24.12
2019-04-27T08:23:49.538Z,24.60
2019-04-27T08:26:28.963Z,23.02
2019-04-27T08:29:21.596Z,23.05
2019-04-27T08:31:56.082Z,22.37
2019-04-27T08:34:36.779Z,25.37
2019-04-27T08:37:09.135Z,23.52
2019-04-27T08:39:40.901Z,25.45
2019-04-27T08:42:12.346Z,23.80
2019-04-27T08:44:42.594Z,23.85
2019-04-27T08:47:12.891Z,24.23
2019-04-27T08:49:43.172Z,22.35
2019-04-27T08:52:13.835Z,23.67
2019-04-27T08:54:44.116Z,24.70
2019-04-27T08:57:14.416Z,22.80
2019-04-27T08:59:44.711Z,22.93
2019-04-27T09:02:14.952Z,25.37
2019-04-27T09:04:45.236Z,24.40
2019-04-27T09:07:34.228Z,25.32
2019-04-27T09:10:09.973Z,22.95
2019-04-27T09:13:02.462Z,27.45
2019-04-27T09:15:43.216Z,22.22
2019-04-27T09:18:15.084Z,23.00
2019-04-27T09:20:49.108Z,22.70
2019-04-27T09:23:19.886Z,21.42
2019-04-27T09:25:50.846Z,23.83
2019-04-27T09:28:21.852Z,23.22
2019-04-27T09:30:52.639Z,25.43
2019-04-27T09:33:22.998Z,24.77
2019-04-27T09:35:53.402Z,25.45
2019-04-27T09:38:24.033Z,25.40
2019-04-27T09:40:55.872Z,22.77
2019-04-27T09:43:26.614Z,22.98
2019-04-27T09:45:57.101Z,22.83
2019-04-27T09:48:27.643Z,22.30
2019-04-27T09:50:58.001Z,22.17
2019-04-27T09:53:28.655Z,22.17
2019-04-27T09:55:59.165Z,22.15
2019-04-27T09:58:29.521Z,20.23
2019-04-27T10:00:59.872Z,20.23
2019-04-27T10:03:30.339Z,21.02
2019-04-27T10:06:00.937Z,19.57
2019-04-27T10:08:31.337Z,20.30
2019-04-27T10:11:01.624Z,20.60
2019-04-27T10:13:33.529Z,17.52
2019-04-27T10:16:03.813Z,21.15
2019-04-27T10:18:36.749Z,18.60
2019-04-27T10:21:07.127Z,20.40
2019-04-27T10:23:38.473Z,20.37
2019-04-27T10:26:09.027Z,22.42
2019-04-27T10:28:39.291Z,19.00
2019-04-27T10:31:09.945Z,20.63
2019-04-27T10:33:40.415Z,20.80
2019-04-27T10:36:10.772Z,20.05
2019-04-27T10:38:41.070Z,19.17
2019-04-27T10:41:11.830Z,20.40
2019-04-27T10:43:42.567Z,19.95
2019-04-27T10:46:13.237Z,17.23
2019-04-27T10:48:45.583Z,20.30
2019-04-27T10:51:16.112Z,19.98
2019-04-27T10:53:46.841Z,19.77
2019-04-27T10:56:17.029Z,20.25
2019-04-27T10:58:47.647Z,19.90
2019-04-27T11:01:17.946Z,19.77
2019-04-27T11:03:57.457Z,21.05
2019-04-27T11:06:37.363Z,20.27
2019-04-27T11:09:10.543Z,19.73
2019-04-27T11:11:42.320Z,19.92
2019-04-27T11:14:12.903Z,19.02
2019-04-27T11:16:45.692Z,19.98
2019-04-27T11:19:16.941Z,18.30
2019-04-27T11:21:47.736Z,17.67
2019-04-27T11:24:18.039Z,18.98
2019-04-27T11:26:48.336Z,19.52
2019-04-27T11:29:18.706Z,15.32
2019-04-27T11:31:48.962Z,18.10
2019-04-27T11:34:20.536Z,20.10
2019-04-27T11:37:02.137Z,18.67
2019-04-27T11:39:32.455Z,18.37
2019-04-27T11:42:02.779Z,17.13
2019-04-27T11:44:33.043Z,16.63
2019-04-27T11:47:03.615Z,17.52
2019-04-27T11:49:33.875Z,16.35
2019-04-27T11:52:05.828Z,16.43
2019-04-27T11:54:36.375Z,19.03
2019-04-27T11:57:06.798Z,18.50
2019-04-27T11:59:37.127Z,19.20
2019-04-27T12:02:07.751Z,18.07
2019-04-27T12:04:38.079Z,16.53
2019-04-27T12:07:09.913Z,16.55
2019-04-27T12:09:40.680Z,16.93
2019-04-27T12:12:18.121Z,18.27
2019-04-27T12:14:42.841Z,18.07
2019-04-27T12:17:13.332Z,18.25
2019-04-27T12:19:43.667Z,19.62
2019-04-27T12:22:16.250Z,16.70
2019-04-27T12:24:46.370Z,17.77
2019-04-27T12:27:33.466Z,16.53
2019-04-27T12:30:09.197Z,17.87
2019-04-27T12:32:40.469Z,19.65
2019-04-27T12:35:11.253Z,19.20
2019-04-27T12:37:42.144Z,18.57
2019-04-27T12:40:12.941Z,18.05
2019-04-27T12:42:43.236Z,18.93
2019-04-27T12:45:13.741Z,19.17
2019-04-27T12:47:44.034Z,19.43
2019-04-27T12:50:17.081Z,18.47
2019-04-27T12:52:49.628Z,19.80
2019-04-27T12:55:28.642Z,20.53
2019-04-27T12:58:21.742Z,19.00
2019-04-27T13:00:52.810Z,19.30
2019-04-27T13:03:23.390Z,19.80
2019-04-27T13:05:53.658Z,19.23
2019-04-27T13:08:25.995Z,19.97
2019-04-27T13:10:57.352Z,20.13
2019-04-27T13:13:29.306Z,19.00
2019-04-27T13:15:59.564Z,18.70
2019-04-27T13:18:30.263Z,20.80
2019-04-27T13:21:00.548Z,18.63
2019-04-27T13:23:32.828Z,21.17
2019-04-27T13:26:03.064Z,20.03
2019-04-27T13:28:33.506Z,20.17
2019-04-27T13:31:04.063Z,18.77
2019-04-27T13:33:36.374Z,20.73
2019-04-27T13:36:07.591Z,19.33
2019-04-27T13:38:38.540Z,20.67
2019-04-27T13:41:09.762Z,19.40
2019-04-27T13:43:40.935Z,19.43
2019-04-27T13:46:35.676Z,17.80
2019-04-27T13:49:40.490Z,19.83
2019-04-27T13:52:16.510Z,20.47
2019-04-27T13:54:47.308Z,19.77
2019-04-27T13:57:18.371Z,19.87
2019-04-27T13:59:48.975Z,20.70
2019-04-27T14:02:21.536Z,21.07
2019-04-27T14:04:51.291Z,20.40
2019-04-27T14:07:22.795Z,20.63
2019-04-27T14:09:53.138Z,21.63
2019-04-27T14:12:23.894Z,21.30
2019-04-27T14:14:54.252Z,22.20
2019-04-27T14:17:25.333Z,21.50
2019-04-27T14:19:55.968Z,23.67
2019-04-27T14:22:28.067Z,25.43
2019-04-27T14:24:59.767Z,27.13
2019-04-27T14:27:40.392Z,28.37
2019-04-27T14:30:11.515Z,26.07
2019-04-27T14:32:42.363Z,26.20
2019-04-27T14:35:13.092Z,25.60
2019-04-27T14:37:43.496Z,21.67
2019-04-27T14:40:15.403Z,21.73
2019-04-27T14:42:48.391Z,22.10
2019-04-27T14:45:18.933Z,22.03
2019-04-27T14:47:49.613Z,22.33
2019-04-27T14:50:19.952Z,22.50
2019-04-27T14:52:50.437Z,22.17
2019-04-27T14:55:21.877Z,23.00
2019-04-27T14:57:52.124Z,24.23
2019-04-27T15:00:23.574Z,22.87
2019-04-27T15:02:53.909Z,23.57
2019-04-27T15:05:24.592Z,24.63
2019-04-27T15:08:01.731Z,24.70
2019-04-27T15:10:32.955Z,23.10
2019-04-27T15:13:06.659Z,19.40
2019-04-27T15:15:36.042Z,18.47
2019-04-27T15:18:06.598Z,20.03
2019-04-27T15:20:42.221Z,19.37
2019-04-27T15:23:14.123Z,19.80
2019-04-27T15:25:47.645Z,19.97
2019-04-27T15:28:24.693Z,19.70
2019-04-27T15:31:23.575Z,20.17
2019-04-27T15:34:07.304Z,21.30
2019-04-27T15:36:56.868Z,21.63
2019-04-27T15:39:44.267Z,21.87
2019-04-27T15:42:19.037Z,20.63
2019-04-27T15:44:58.381Z,21.57
2019-04-27T15:47:28.740Z,21.97
2019-04-27T15:50:01.783Z,22.17
2019-04-27T15:52:35.261Z,21.27
2019-04-27T15:55:17.749Z,22.97
2019-04-27T15:57:46.897Z,21.83
2019-04-27T16:00:22.340Z,22.93
2019-04-27T16:02:52.942Z,22.00
2019-04-27T16:05:32.311Z,21.33
2019-04-27T16:08:05.977Z,22.93
2019-04-27T16:10:37.304Z,21.67
2019-04-27T16:13:09.371Z,22.67
2019-04-27T16:15:38.539Z,23.23
2019-04-27T16:18:09.574Z,23.20
2019-04-27T16:20:39.894Z,24.00
2019-04-27T16:23:10.278Z,23.37
2019-04-27T16:25:48.524Z,23.37
2019-04-27T16:28:13.485Z,24.17
2019-04-27T16:30:45.617Z,22.77
2019-04-27T16:33:22.537Z,23.20
2019-04-27T16:35:53.188Z,22.27
2019-04-27T16:38:38.878Z,20.93
2019-04-27T16:41:09.372Z,21.73
2019-04-27T16:43:41.382Z,22.37
2019-04-27T16:46:11.703Z,23.03
2019-04-27T16:48:42.771Z,24.13
2019-04-27T16:51:13.048Z,22.63
2019-04-27T16:53:43.992Z,22.73
2019-04-27T16:56:16.431Z,23.07
2019-04-27T16:58:49.097Z,21.73
2019-04-27T17:01:29.995Z,22.63
2019-04-27T17:03:59.306Z,21.87
2019-04-27T17:06:30.906Z,21.77
2019-04-27T17:09:06.774Z,23.73
2019-04-27T17:11:35.463Z,21.67
2019-04-27T17:14:34.749Z,23.33
2019-04-27T17:17:10.686Z,23.57
2019-04-27T17:19:43.956Z,24.47
2019-04-27T17:22:16.334Z,25.23
2019-04-27T17:24:49.167Z,25.73
2019-04-27T17:27:22.062Z,24.73
2019-04-27T17:29:58.236Z,25.77
2019-04-27T17:32:40.241Z,26.77
2019-04-27T17:35:14.872Z,26.63
2019-04-27T17:37:44.099Z,26.80
2019-04-27T17:40:15.554Z,27.17
2019-04-27T17:42:48.175Z,27.97
2019-04-27T17:45:19.390Z,27.00
2019-04-27T17:47:50.746Z,24.87
2019-04-27T17:50:25.046Z,23.13
2019-04-27T17:52:56.891Z,24.40
2019-04-27T17:55:27.939Z,25.33
2019-04-27T17:58:04.967Z,27.30
2019-04-27T18:00:33.067Z,27.17
2019-04-27T18:03:02.836Z,25.47
2019-04-27T18:05:33.169Z,24.27
2019-04-27T18:08:03.523Z,25.87
2019-04-27T18:10:33.821Z,24.00
2019-04-27T18:13:04.536Z,24.27
2019-04-27T18:15:34.817Z,25.17
2019-04-27T18:18:22.830Z,24.27
2019-04-27T18:20:51.133Z,23.97
2019-04-27T18:23:23.766Z,23.67
2019-04-27T18:26:01.438Z,24.50
2019-04-27T18:28:33.948Z,24.20
2019-04-27T18:31:07.418Z,25.27
2019-04-27T18:33:38.346Z,23.80
2019-04-27T18:36:13.772Z,24.30
2019-04-27T18:38:40.724Z,23.00
2019-04-27T18:41:11.880Z,22.40
2019-04-27T18:43:50.639Z,22.57
2019-04-27T18:46:21.737Z,22.70
2019-04-27T18:49:06.322Z,23.03
2019-04-27T18:51:45.323Z,21.63
2019-04-27T18:54:15.920Z,25.43
2019-04-27T18:56:51.702Z,24.93
2019-04-27T18:59:18.762Z,24.60
2019-04-27T19:01:49.333Z,24.67
2019-04-27T19:04:19.682Z,24.23
2019-04-27T19:06:50.053Z,23.97
2019-04-27T19:09:20.519Z,24.53
2019-04-27T19:11:56.203Z,26.07
2019-04-27T19:14:22.917Z,24.73
2019-04-27T19:16:53.239Z,26.60
2019-04-27T19:19:23.701Z,25.80
2019-04-27T19:21:54.211Z,25.93
2019-04-27T19:24:24.581Z,26.17
2019-04-27T19:27:29.780Z,24.83
2019-04-27T19:30:05.192Z,24.87
2019-04-27T19:32:37.072Z,24.57
2019-04-27T19:35:07.480Z,23.67
2019-04-27T19:37:37.993Z,23.50
2019-04-27T19:40:10.065Z,24.97
2019-04-27T19:42:40.378Z,23.07
2019-04-27T19:45:10.963Z,23.30
2019-04-27T19:47:41.268Z,21.87
2019-04-27T19:50:11.553Z,22.47
2019-04-27T19:52:42.428Z,23.20
2019-04-27T19:55:13.059Z,22.17
2019-04-27T19:57:43.854Z,21.67
2019-04-27T20:00:33.151Z,21.77
2019-04-27T20:03:04.607Z,21.40
2019-04-27T20:05:34.888Z,21.43
2019-04-27T20:08:07.619Z,21.87
2019-04-27T20:10:39.067Z,22.60
2019-04-27T20:13:10.886Z,21.60
2019-04-27T20:15:42.961Z,22.93
2019-04-27T20:18:13.424Z,22.60
2019-04-27T20:20:44.015Z,22.60
2019-04-27T20:23:14.272Z,22.37
2019-04-27T20:25:45.095Z,22.80
2019-04-27T20:28:15.408Z,22.63
2019-04-27T20:30:45.817Z,23.27
2019-04-27T20:33:17.304Z,25.87
2019-04-27T20:35:47.730Z,26.07
2019-04-27T20:38:18.333Z,26.40
2019-04-27T20:40:48.799Z,25.73
2019-04-27T20:43:21.234Z,27.73
2019-04-27T20:45:51.639Z,28.83
2019-04-27T20:48:22.284Z,29.07
2019-04-27T20:50:52.502Z,28.20
2019-04-27T20:53:26.310Z,27.57
2019-04-27T20:55:56.818Z,25.80
2019-04-27T20:58:27.474Z,25.90
2019-04-27T21:00:57.786Z,24.97
2019-04-27T21:03:36.140Z,23.50
2019-04-27T21:06:34.578Z,22.23
2019-04-27T21:09:12.729Z,22.47
2019-04-27T21:11:46.063Z,22.03
2019-04-27T21:14:16.911Z,22.60
2019-04-27T21:16:47.550Z,21.80
2019-04-27T21:19:17.818Z,20.87
2019-04-27T21:21:48.094Z,21.03
2019-04-27T21:24:18.355Z,20.83
2019-04-27T21:26:48.702Z,21.10
2019-04-27T21:29:20.765Z,19.53
2019-04-27T21:31:52.026Z,20.17
2019-04-27T21:34:22.324Z,19.83
2019-04-27T21:36:52.962Z,19.37
2019-04-27T21:39:23.230Z,19.33
2019-04-27T21:41:53.830Z,17.60
2019-04-27T21:44:24.068Z,19.23
2019-04-27T21:46:54.354Z,17.53
2019-04-27T21:49:25.087Z,17.97
2019-04-27T21:52:05.533Z,16.43
2019-04-27T21:54:36.879Z,17.00
2019-04-27T21:57:07.172Z,16.67
2019-04-27T21:59:37.575Z,15.70
2019-04-27T22:02:09.390Z,16.63
2019-04-27T22:04:41.616Z,16.70
2019-04-27T22:07:11.981Z,17.27
2019-04-27T22:09:43.303Z,17.53
2019-04-27T22:12:13.761Z,16.83
2019-04-27T22:14:44.179Z,18.03
2019-04-27T22:17:14.503Z,19.37
2019-04-27T22:19:44.811Z,18.63
2019-04-27T22:22:23.199Z,19.50
2019-04-27T22:24:59.109Z,18.10
2019-04-27T22:27:30.903Z,19.67
2019-04-27T22:30:01.471Z,18.13
2019-04-27T22:32:33.110Z,18.30
2019-04-27T22:35:03.995Z,19.47
2019-04-27T22:37:34.309Z,19.80
2019-04-27T22:40:23.947Z,19.37
2019-04-27T22:43:28.265Z,21.37
2019-04-27T22:45:59.083Z,21.53
2019-04-27T22:48:32.835Z,20.90
2019-04-27T22:51:01.682Z,21.43
2019-04-27T22:53:32.518Z,22.53
2019-04-27T22:56:22.161Z,22.40
2019-04-27T22:59:16.941Z,22.90
2019-04-27T23:02:04.949Z,20.20
2019-04-27T23:04:41.084Z,21.13
2019-04-27T23:07:11.202Z,20.20
2019-04-27T23:09:42.850Z,19.73
2019-04-27T23:12:13.727Z,18.80
2019-04-27T23:14:44.309Z,18.73
2019-04-27T23:17:32.375Z,19.70
2019-04-27T23:20:03.586Z,17.77
2019-04-27T23:22:33.821Z,17.80
2019-04-27T23:25:04.197Z,17.47
2019-04-27T23:27:34.527Z,18.07
2019-04-27T23:30:05.860Z,17.87
2019-04-27T23:32:45.564Z,17.97
2019-04-27T23:35:15.808Z,18.30
2019-04-27T23:37:46.382Z,18.10
2019-04-27T23:40:17.709Z,18.23
2019-04-27T23:42:48.060Z,18.97
2019-04-27T23:45:18.412Z,18.17
2019-04-27T23:47:48.704Z,18.80
2019-04-27T23:50:19.243Z,18.23
2019-04-27T23:53:11.721Z,19.00
2019-04-27T23:55:42.160Z,19.27
2019-04-27T23:58:12.594Z,18.77
